sensor_id;sensor_type;location;lat;lon;timestamp;temperature;humidity
28438;DHT22;15667;52.376;9.708;2022-12-18T00:02:11;-4.00;99.90
28438;DHT22;15667;52.376;9.708;2022-12-18T00:04:37;-4.00;99.90
28438;DHT22;15667;52.376;9.708;2022-12-18T00:07:02;-4.00;99.90
28438;DHT22;15667;52.376;9.708;2022-12-18T00:09:28;-4.00;99.90
28438;DHT22;15667;52.376;9.708;2022-12-18T00:11:53;-4.00;99.90
28438;DHT22;15667;52.376;9.708;2022-12-18T00:14:19;-2.90;99.90
28438;DHT22;15667;52.376;9.708;2022-12-18T00:16:45;-4.00;99.90
28438;DHT22;15667;52.376;9.708;2022-12-18T00:19:11;-3.90;99.90
28438;DHT22;15667;52.376;9.708;2022-12-18T00:21:38;-3.90;99.90
28438;DHT22;15667;52.376;9.708;2022-12-18T00:24:03;-3.90;99.90
28438;DHT22;15667;52.376;9.708;2022-12-18T00:26:30;-3.90;99.90
28438;DHT22;15667;52.376;9.708;2022-12-18T00:29:00;-3.80;99.90
28438;DHT22;15667;52.376;9.708;2022-12-18T00:31:26;-3.80;99.90
28438;DHT22;15667;52.376;9.708;2022-12-18T00:33:53;-3.80;99.90
28438;DHT22;15667;52.376;9.708;2022-12-18T00:36:20;-3.80;99.90
28438;DHT22;15667;52.376;9.708;2022-12-18T00:38:46;-3.80;99.90
28438;DHT22;15667;52.376;9.708;2022-12-18T00:41:13;-3.90;99.90
28438;DHT22;15667;52.376;9.708;2022-12-18T00:43:59;-3.80;99.90
28438;DHT22;15667;52.376;9.708;2022-12-18T00:46:24;-3.80;99.90
28438;DHT22;15667;52.376;9.708;2022-12-18T00:48:50;-4.10;99.90
28438;DHT22;15667;52.376;9.708;2022-12-18T00:51:15;-3.90;99.90
28438;DHT22;15667;52.376;9.708;2022-12-18T00:53:41;-3.80;99.90
28438;DHT22;15667;52.376;9.708;2022-12-18T00:56:07;-3.80;99.90
28438;DHT22;15667;52.376;9.708;2022-12-18T00:58:32;-3.80;99.90
28438;DHT22;15667;52.376;9.708;2022-12-18T01:01:00;-3.40;99.90
28438;DHT22;15667;52.376;9.708;2022-12-18T01:03:26;-3.80;99.90
28438;DHT22;15667;52.376;9.708;2022-12-18T01:05:51;-3.80;99.90
28438;DHT22;15667;52.376;9.708;2022-12-18T01:08:17;-2.90;99.90
28438;DHT22;15667;52.376;9.708;2022-12-18T01:10:43;-3.90;99.90
28438;DHT22;15667;52.376;9.708;2022-12-18T01:13:08;-3.20;99.90
28438;DHT22;15667;52.376;9.708;2022-12-18T01:15:34;-2.70;99.90
28438;DHT22;15667;52.376;9.708;2022-12-18T01:17:59;-3.70;99.90
28438;DHT22;15667;52.376;9.708;2022-12-18T01:20:25;-3.00;99.90
28438;DHT22;15667;52.376;9.708;2022-12-18T01:22:50;-4.00;99.90
28438;DHT22;15667;52.376;9.708;2022-12-18T01:25:16;-4.00;99.90
28438;DHT22;15667;52.376;9.708;2022-12-18T01:27:41;-4.00;99.90
28438;DHT22;15667;52.376;9.708;2022-12-18T01:30:07;-4.00;99.90
28438;DHT22;15667;52.376;9.708;2022-12-18T01:32:33;-4.00;99.90
28438;DHT22;15667;52.376;9.708;2022-12-18T01:34:58;-4.00;99.90
28438;DHT22;15667;52.376;9.708;2022-12-18T01:37:24;-4.00;99.90
28438;DHT22;15667;52.376;9.708;2022-12-18T01:39:49;-3.80;99.90
28438;DHT22;15667;52.376;9.708;2022-12-18T01:42:15;-4.10;99.90
28438;DHT22;15667;52.376;9.708;2022-12-18T01:47:33;-4.20;99.90
28438;DHT22;15667;52.376;9.708;2022-12-18T01:50:16;-4.20;99.90
28438;DHT22;15667;52.376;9.708;2022-12-18T01:52:43;-4.20;99.90
28438;DHT22;15667;52.376;9.708;2022-12-18T01:55:10;-4.30;99.90
28438;DHT22;15667;52.376;9.708;2022-12-18T01:57:37;-3.70;99.90
28438;DHT22;15667;52.376;9.708;2022-12-18T02:00:08;-3.50;99.90
28438;DHT22;15667;52.376;9.708;2022-12-18T02:02:34;-4.20;99.90
28438;DHT22;15667;52.376;9.708;2022-12-18T02:04:59;-4.20;99.90
28438;DHT22;15667;52.376;9.708;2022-12-18T02:15:19;-4.20;99.90
28438;DHT22;15667;52.376;9.708;2022-12-18T02:17:47;-4.20;99.90
28438;DHT22;15667;52.376;9.708;2022-12-18T02:20:20;-4.20;99.90
28438;DHT22;15667;52.376;9.708;2022-12-18T02:22:50;-4.30;99.90
28438;DHT22;15667;52.376;9.708;2022-12-18T02:25:51;-4.30;99.90
28438;DHT22;15667;52.376;9.708;2022-12-18T02:28:19;-5.40;99.90
28438;DHT22;15667;52.376;9.708;2022-12-18T02:30:45;-3.30;99.90
28438;DHT22;15667;52.376;9.708;2022-12-18T02:33:13;-3.40;99.90
28438;DHT22;15667;52.376;9.708;2022-12-18T02:35:39;-4.50;99.90
28438;DHT22;15667;52.376;9.708;2022-12-18T02:38:05;-4.30;99.90
28438;DHT22;15667;52.376;9.708;2022-12-18T02:40:31;-4.60;99.90
28438;DHT22;15667;52.376;9.708;2022-12-18T02:43:07;-4.60;99.90
28438;DHT22;15667;52.376;9.708;2022-12-18T02:45:32;-4.60;99.90
28438;DHT22;15667;52.376;9.708;2022-12-18T02:47:58;-4.60;99.90
28438;DHT22;15667;52.376;9.708;2022-12-18T02:50:29;-4.60;99.90
28438;DHT22;15667;52.376;9.708;2022-12-18T02:55:28;-4.70;99.90
28438;DHT22;15667;52.376;9.708;2022-12-18T03:09:41;-4.70;99.90
28438;DHT22;15667;52.376;9.708;2022-12-18T03:12:24;-4.80;99.90
28438;DHT22;15667;52.376;9.708;2022-12-18T03:17:34;-4.80;99.90
28438;DHT22;15667;52.376;9.708;2022-12-18T03:20:05;-4.80;99.90
28438;DHT22;15667;52.376;9.708;2022-12-18T03:22:33;-4.80;99.90
28438;DHT22;15667;52.376;9.708;2022-12-18T03:25:03;-4.80;99.90
28438;DHT22;15667;52.376;9.708;2022-12-18T03:27:29;-4.50;99.90
28438;DHT22;15667;52.376;9.708;2022-12-18T03:32:54;-3.80;99.90
28438;DHT22;15667;52.376;9.708;2022-12-18T03:35:21;-4.80;99.90
28438;DHT22;15667;52.376;9.708;2022-12-18T03:37:47;-4.70;99.90
28438;DHT22;15667;52.376;9.708;2022-12-18T03:40:13;-4.00;99.90
28438;DHT22;15667;52.376;9.708;2022-12-18T03:42:51;-4.70;99.90
28438;DHT22;15667;52.376;9.708;2022-12-18T03:45:30;-4.60;99.90
28438;DHT22;15667;52.376;9.708;2022-12-18T03:48:07;-4.70;99.90
28438;DHT22;15667;52.376;9.708;2022-12-18T03:53:06;-4.00;99.90
28438;DHT22;15667;52.376;9.708;2022-12-18T03:55:33;-4.60;99.90
28438;DHT22;15667;52.376;9.708;2022-12-18T03:58:00;-4.70;99.90
28438;DHT22;15667;52.376;9.708;2022-12-18T04:00:27;-4.70;99.90
28438;DHT22;15667;52.376;9.708;2022-12-18T04:02:54;-3.30;99.90
28438;DHT22;15667;52.376;9.708;2022-12-18T04:05:20;-5.30;99.90
28438;DHT22;15667;52.376;9.708;2022-12-18T04:07:47;-4.90;99.90
28438;DHT22;15667;52.376;9.708;2022-12-18T04:10:14;-4.80;99.90
28438;DHT22;15667;52.376;9.708;2022-12-18T04:12:40;-3.70;99.90
28438;DHT22;15667;52.376;9.708;2022-12-18T04:15:07;-4.80;99.90
28438;DHT22;15667;52.376;9.708;2022-12-18T04:17:33;-4.80;99.90
28438;DHT22;15667;52.376;9.708;2022-12-18T04:19:58;-4.70;99.90
28438;DHT22;15667;52.376;9.708;2022-12-18T04:22:24;-4.70;99.90
28438;DHT22;15667;52.376;9.708;2022-12-18T04:24:49;-4.60;99.90
28438;DHT22;15667;52.376;9.708;2022-12-18T04:27:15;-4.50;99.90
28438;DHT22;15667;52.376;9.708;2022-12-18T04:29:48;-4.50;99.90
28438;DHT22;15667;52.376;9.708;2022-12-18T04:32:21;-4.50;99.90
28438;DHT22;15667;52.376;9.708;2022-12-18T04:34:53;-4.50;99.90
28438;DHT22;15667;52.376;9.708;2022-12-18T04:37:19;-3.80;99.90
28438;DHT22;15667;52.376;9.708;2022-12-18T04:39:44;-3.20;99.90
28438;DHT22;15667;52.376;9.708;2022-12-18T04:42:10;-3.50;99.90
28438;DHT22;15667;52.376;9.708;2022-12-18T04:44:35;-3.90;99.90
28438;DHT22;15667;52.376;9.708;2022-12-18T04:47:01;-5.60;99.90
28438;DHT22;15667;52.376;9.708;2022-12-18T04:49:27;-4.70;99.90
28438;DHT22;15667;52.376;9.708;2022-12-18T04:51:52;-4.50;99.90
28438;DHT22;15667;52.376;9.708;2022-12-18T04:54:21;-3.00;99.90
28438;DHT22;15667;52.376;9.708;2022-12-18T04:56:54;-4.60;99.90
28438;DHT22;15667;52.376;9.708;2022-12-18T04:59:42;-4.50;99.90
28438;DHT22;15667;52.376;9.708;2022-12-18T05:02:12;-4.50;99.90
28438;DHT22;15667;52.376;9.708;2022-12-18T05:04:48;-4.60;99.90
28438;DHT22;15667;52.376;9.708;2022-12-18T05:16:38;-4.70;99.90
28438;DHT22;15667;52.376;9.708;2022-12-18T05:19:06;-5.60;99.90
28438;DHT22;15667;52.376;9.708;2022-12-18T05:21:32;-4.80;99.90
28438;DHT22;15667;52.376;9.708;2022-12-18T05:23:58;-3.90;99.90
28438;DHT22;15667;52.376;9.708;2022-12-18T05:26:23;-4.80;99.90
28438;DHT22;15667;52.376;9.708;2022-12-18T05:28:49;-4.80;99.90
28438;DHT22;15667;52.376;9.708;2022-12-18T05:31:14;-4.80;99.90
28438;DHT22;15667;52.376;9.708;2022-12-18T05:33:40;-4.80;99.90
28438;DHT22;15667;52.376;9.708;2022-12-18T05:36:06;-4.90;99.90
28438;DHT22;15667;52.376;9.708;2022-12-18T05:38:33;-4.90;99.90
28438;DHT22;15667;52.376;9.708;2022-12-18T05:40:58;-4.80;99.90
28438;DHT22;15667;52.376;9.708;2022-12-18T05:43:24;-4.80;99.90
28438;DHT22;15667;52.376;9.708;2022-12-18T05:45:53;-4.90;99.90
28438;DHT22;15667;52.376;9.708;2022-12-18T05:48:19;-3.50;99.90
28438;DHT22;15667;52.376;9.708;2022-12-18T05:50:45;-3.70;99.90
28438;DHT22;15667;52.376;9.708;2022-12-18T05:53:12;-4.80;99.90
28438;DHT22;15667;52.376;9.708;2022-12-18T05:55:39;-4.80;99.90
28438;DHT22;15667;52.376;9.708;2022-12-18T05:58:05;-4.80;99.90
28438;DHT22;15667;52.376;9.708;2022-12-18T06:00:31;-3.50;99.90
28438;DHT22;15667;52.376;9.708;2022-12-18T06:02:57;-3.50;99.90
28438;DHT22;15667;52.376;9.708;2022-12-18T06:05:23;-3.30;99.90
28438;DHT22;15667;52.376;9.708;2022-12-18T06:07:48;-3.40;99.90
28438;DHT22;15667;52.376;9.708;2022-12-18T06:10:14;-4.70;99.90
28438;DHT22;15667;52.376;9.708;2022-12-18T06:12:39;-3.60;99.90
28438;DHT22;15667;52.376;9.708;2022-12-18T06:15:05;-4.70;99.90
28438;DHT22;15667;52.376;9.708;2022-12-18T06:17:31;-4.80;99.90
28438;DHT22;15667;52.376;9.708;2022-12-18T06:19:57;-4.80;99.90
28438;DHT22;15667;52.376;9.708;2022-12-18T06:22:22;-4.80;99.90
28438;DHT22;15667;52.376;9.708;2022-12-18T06:24:47;-4.80;99.90
28438;DHT22;15667;52.376;9.708;2022-12-18T06:27:13;-4.80;99.90
28438;DHT22;15667;52.376;9.708;2022-12-18T06:29:39;-4.80;99.90
28438;DHT22;15667;52.376;9.708;2022-12-18T06:32:04;-4.80;99.90
28438;DHT22;15667;52.376;9.708;2022-12-18T06:34:30;-3.60;99.90
28438;DHT22;15667;52.376;9.708;2022-12-18T06:36:56;-4.70;99.90
28438;DHT22;15667;52.376;9.708;2022-12-18T06:39:21;-4.10;99.90
28438;DHT22;15667;52.376;9.708;2022-12-18T06:41:47;-3.80;99.90
28438;DHT22;15667;52.376;9.708;2022-12-18T06:44:12;-4.70;99.90
28438;DHT22;15667;52.376;9.708;2022-12-18T06:46:38;-3.40;99.90
28438;DHT22;15667;52.376;9.708;2022-12-18T06:49:03;-4.20;99.90
28438;DHT22;15667;52.376;9.708;2022-12-18T06:51:29;-4.60;99.90
28438;DHT22;15667;52.376;9.708;2022-12-18T06:53:57;-4.60;99.90
28438;DHT22;15667;52.376;9.708;2022-12-18T06:56:23;-3.20;99.90
28438;DHT22;15667;52.376;9.708;2022-12-18T06:58:48;-4.70;99.90
28438;DHT22;15667;52.376;9.708;2022-12-18T07:01:14;-3.40;99.90
28438;DHT22;15667;52.376;9.708;2022-12-18T07:03:42;-3.60;99.90
28438;DHT22;15667;52.376;9.708;2022-12-18T07:06:14;-4.40;99.90
28438;DHT22;15667;52.376;9.708;2022-12-18T07:08:40;-4.60;99.90
28438;DHT22;15667;52.376;9.708;2022-12-18T07:11:05;-3.50;99.90
28438;DHT22;15667;52.376;9.708;2022-12-18T07:13:31;-4.20;99.90
28438;DHT22;15667;52.376;9.708;2022-12-18T07:16:05;-4.60;99.90
28438;DHT22;15667;52.376;9.708;2022-12-18T07:18:31;-4.60;99.90
28438;DHT22;15667;52.376;9.708;2022-12-18T07:20:57;-3.50;99.90
28438;DHT22;15667;52.376;9.708;2022-12-18T07:23:22;-4.50;99.90
28438;DHT22;15667;52.376;9.708;2022-12-18T07:25:51;-4.60;99.90
28438;DHT22;15667;52.376;9.708;2022-12-18T07:28:16;-4.50;99.90
28438;DHT22;15667;52.376;9.708;2022-12-18T07:30:42;-3.10;99.90
28438;DHT22;15667;52.376;9.708;2022-12-18T07:33:07;-4.50;99.90
28438;DHT22;15667;52.376;9.708;2022-12-18T07:35:33;-4.50;99.90
28438;DHT22;15667;52.376;9.708;2022-12-18T07:38:00;-4.40;99.90
28438;DHT22;15667;52.376;9.708;2022-12-18T07:40:26;-4.50;99.90
28438;DHT22;15667;52.376;9.708;2022-12-18T07:42:51;-3.80;99.90
28438;DHT22;15667;52.376;9.708;2022-12-18T07:45:17;-4.60;99.90
28438;DHT22;15667;52.376;9.708;2022-12-18T07:47:42;-4.50;99.90
28438;DHT22;15667;52.376;9.708;2022-12-18T07:50:08;-4.60;99.90
28438;DHT22;15667;52.376;9.708;2022-12-18T07:52:34;-4.60;99.90
28438;DHT22;15667;52.376;9.708;2022-12-18T07:54:59;-4.60;99.90
28438;DHT22;15667;52.376;9.708;2022-12-18T07:57:25;-4.70;99.90
28438;DHT22;15667;52.376;9.708;2022-12-18T07:59:50;-4.60;99.90
28438;DHT22;15667;52.376;9.708;2022-12-18T08:02:16;-4.60;99.90
28438;DHT22;15667;52.376;9.708;2022-12-18T08:04:41;-4.50;99.90
28438;DHT22;15667;52.376;9.708;2022-12-18T08:07:07;-4.20;99.90
28438;DHT22;15667;52.376;9.708;2022-12-18T08:09:39;-4.50;99.90
28438;DHT22;15667;52.376;9.708;2022-12-18T08:12:05;-4.80;99.90
28438;DHT22;15667;52.376;9.708;2022-12-18T08:14:37;-4.50;99.90
28438;DHT22;15667;52.376;9.708;2022-12-18T08:17:18;-3.50;99.90
28438;DHT22;15667;52.376;9.708;2022-12-18T08:20:13;-5.00;99.90
28438;DHT22;15667;52.376;9.708;2022-12-18T08:22:43;-4.40;99.90
28438;DHT22;15667;52.376;9.708;2022-12-18T08:25:09;-4.30;99.90
28438;DHT22;15667;52.376;9.708;2022-12-18T08:27:34;-4.20;99.90
28438;DHT22;15667;52.376;9.708;2022-12-18T08:30:07;-4.20;99.90
28438;DHT22;15667;52.376;9.708;2022-12-18T08:32:33;-4.20;99.90
28438;DHT22;15667;52.376;9.708;2022-12-18T08:35:02;-4.10;99.90
28438;DHT22;15667;52.376;9.708;2022-12-18T08:43:25;-4.90;99.90
28438;DHT22;15667;52.376;9.708;2022-12-18T08:46:31;-3.90;99.90
28438;DHT22;15667;52.376;9.708;2022-12-18T08:49:00;-4.40;99.90
28438;DHT22;15667;52.376;9.708;2022-12-18T08:51:31;-3.80;99.90
28438;DHT22;15667;52.376;9.708;2022-12-18T08:54:03;-4.60;99.90
28438;DHT22;15667;52.376;9.708;2022-12-18T08:56:55;-3.60;99.90
28438;DHT22;15667;52.376;9.708;2022-12-18T09:02:50;-3.70;99.90
28438;DHT22;15667;52.376;9.708;2022-12-18T10:11:43;-2.80;99.90
28438;DHT22;15667;52.376;9.708;2022-12-18T10:20:37;-1.70;99.90
28438;DHT22;15667;52.376;9.708;2022-12-18T11:18:53;-0.20;99.90
28438;DHT22;15667;52.376;9.708;2022-12-18T11:21:25;-0.10;99.90
28438;DHT22;15667;52.376;9.708;2022-12-18T11:24:35;-0.20;99.90
28438;DHT22;15667;52.376;9.708;2022-12-18T11:27:04;-0.20;99.90
28438;DHT22;15667;52.376;9.708;2022-12-18T11:29:47;-0.20;99.90
28438;DHT22;15667;52.376;9.708;2022-12-18T11:34:48;-0.10;99.90
28438;DHT22;15667;52.376;9.708;2022-12-18T11:37:15;-0.10;99.90
28438;DHT22;15667;52.376;9.708;2022-12-18T11:46:16;-0.80;99.90
28438;DHT22;15667;52.376;9.708;2022-12-18T11:48:52;0.40;99.90
28438;DHT22;15667;52.376;9.708;2022-12-18T11:51:31;0.10;99.90
28438;DHT22;15667;52.376;9.708;2022-12-18T11:54:00;-0.70;99.90
28438;DHT22;15667;52.376;9.708;2022-12-18T11:56:39;0.20;99.90
28438;DHT22;15667;52.376;9.708;2022-12-18T12:10:03;0.40;99.90
28438;DHT22;15667;52.376;9.708;2022-12-18T12:15:33;1.50;99.90
28438;DHT22;15667;52.376;9.708;2022-12-18T12:28:26;0.50;99.90
28438;DHT22;15667;52.376;9.708;2022-12-18T12:39:34;0.70;99.90
28438;DHT22;15667;52.376;9.708;2022-12-18T12:45:22;1.30;99.90
28438;DHT22;15667;52.376;9.708;2022-12-18T12:47:53;0.00;99.90
28438;DHT22;15667;52.376;9.708;2022-12-18T12:50:22;0.70;99.90
28438;DHT22;15667;52.376;9.708;2022-12-18T12:52:51;0.60;99.90
28438;DHT22;15667;52.376;9.708;2022-12-18T12:55:19;1.10;99.90
28438;DHT22;15667;52.376;9.708;2022-12-18T12:57:48;-0.10;99.90
28438;DHT22;15667;52.376;9.708;2022-12-18T13:00:16;1.70;99.90
28438;DHT22;15667;52.376;9.708;2022-12-18T13:05:29;0.60;99.90
28438;DHT22;15667;52.376;9.708;2022-12-18T13:10:55;0.50;99.90
28438;DHT22;15667;52.376;9.708;2022-12-18T13:13:51;0.40;99.90
28438;DHT22;15667;52.376;9.708;2022-12-18T13:16:21;0.40;99.90
28438;DHT22;15667;52.376;9.708;2022-12-18T13:18:53;0.40;99.90
28438;DHT22;15667;52.376;9.708;2022-12-18T13:28:50;0.40;99.90
28438;DHT22;15667;52.376;9.708;2022-12-18T13:34:11;0.30;99.90
28438;DHT22;15667;52.376;9.708;2022-12-18T13:36:38;0.90;99.90
28438;DHT22;15667;52.376;9.708;2022-12-18T13:41:35;1.00;99.90
28438;DHT22;15667;52.376;9.708;2022-12-18T13:46:59;0.40;99.90
28438;DHT22;15667;52.376;9.708;2022-12-18T13:49:28;0.20;99.90
28438;DHT22;15667;52.376;9.708;2022-12-18T13:51:57;0.20;99.90
28438;DHT22;15667;52.376;9.708;2022-12-18T13:54:33;0.10;99.90
28438;DHT22;15667;52.376;9.708;2022-12-18T13:57:00;0.00;99.90
28438;DHT22;15667;52.376;9.708;2022-12-18T13:59:32;0.00;99.90
28438;DHT22;15667;52.376;9.708;2022-12-18T14:01:59;0.00;99.90
28438;DHT22;15667;52.376;9.708;2022-12-18T14:07:12;1.00;99.90
28438;DHT22;15667;52.376;9.708;2022-12-18T14:09:40;-0.30;99.90
28438;DHT22;15667;52.376;9.708;2022-12-18T14:12:30;0.70;99.90
28438;DHT22;15667;52.376;9.708;2022-12-18T14:15:33;-0.50;99.90
28438;DHT22;15667;52.376;9.708;2022-12-18T14:20:41;-0.60;99.90
28438;DHT22;15667;52.376;9.708;2022-12-18T14:25:53;-0.70;99.90
28438;DHT22;15667;52.376;9.708;2022-12-18T14:28:19;-0.70;99.90
28438;DHT22;15667;52.376;9.708;2022-12-18T14:30:47;-0.80;99.90
28438;DHT22;15667;52.376;9.708;2022-12-18T14:33:16;-0.80;99.90
28438;DHT22;15667;52.376;9.708;2022-12-18T14:38:32;-0.90;99.90
28438;DHT22;15667;52.376;9.708;2022-12-18T14:41:02;-1.00;99.90
28438;DHT22;15667;52.376;9.708;2022-12-18T14:43:29;-1.10;99.90
28438;DHT22;15667;52.376;9.708;2022-12-18T14:45:55;-1.10;99.90
28438;DHT22;15667;52.376;9.708;2022-12-18T14:48:22;-1.10;99.90
28438;DHT22;15667;52.376;9.708;2022-12-18T14:50:58;-0.60;99.90
28438;DHT22;15667;52.376;9.708;2022-12-18T14:53:32;-1.20;99.90
28438;DHT22;15667;52.376;9.708;2022-12-18T14:55:59;-1.30;99.90
28438;DHT22;15667;52.376;9.708;2022-12-18T14:58:25;-1.30;99.90
28438;DHT22;15667;52.376;9.708;2022-12-18T15:00:51;-1.40;99.90
28438;DHT22;15667;52.376;9.708;2022-12-18T15:03:20;-1.40;99.90
28438;DHT22;15667;52.376;9.708;2022-12-18T15:05:46;-1.40;99.90
28438;DHT22;15667;52.376;9.708;2022-12-18T15:08:29;-0.30;99.90
28438;DHT22;15667;52.376;9.708;2022-12-18T15:10:54;-1.50;99.90
28438;DHT22;15667;52.376;9.708;2022-12-18T15:13:24;-1.40;99.90
28438;DHT22;15667;52.376;9.708;2022-12-18T15:15:51;-1.50;99.90
28438;DHT22;15667;52.376;9.708;2022-12-18T15:18:18;-1.50;99.90
28438;DHT22;15667;52.376;9.708;2022-12-18T15:20:53;-1.40;99.90
28438;DHT22;15667;52.376;9.708;2022-12-18T15:23:21;-1.40;99.90
28438;DHT22;15667;52.376;9.708;2022-12-18T15:25:48;-1.40;99.90
28438;DHT22;15667;52.376;9.708;2022-12-18T15:28:19;-1.40;99.90
28438;DHT22;15667;52.376;9.708;2022-12-18T15:30:59;-1.40;99.90
28438;DHT22;15667;52.376;9.708;2022-12-18T15:33:34;-1.50;99.90
28438;DHT22;15667;52.376;9.708;2022-12-18T15:39:20;-1.60;99.90
28438;DHT22;15667;52.376;9.708;2022-12-18T15:42:08;-1.70;99.90
28438;DHT22;15667;52.376;9.708;2022-12-18T15:44:56;-1.70;99.90
28438;DHT22;15667;52.376;9.708;2022-12-18T15:47:28;-1.70;99.90
28438;DHT22;15667;52.376;9.708;2022-12-18T15:50:18;-2.40;99.90
28438;DHT22;15667;52.376;9.708;2022-12-18T15:52:49;-1.90;99.90
28438;DHT22;15667;52.376;9.708;2022-12-18T15:55:23;-1.90;99.90
28438;DHT22;15667;52.376;9.708;2022-12-18T15:58:08;-1.80;99.90
28438;DHT22;15667;52.376;9.708;2022-12-18T16:03:46;-1.90;99.90
28438;DHT22;15667;52.376;9.708;2022-12-18T16:21:35;-2.30;99.90
28438;DHT22;15667;52.376;9.708;2022-12-18T16:24:01;-0.40;99.90
28438;DHT22;15667;52.376;9.708;2022-12-18T16:26:26;-0.50;99.90
28438;DHT22;15667;52.376;9.708;2022-12-18T16:28:52;-2.20;99.90
28438;DHT22;15667;52.376;9.708;2022-12-18T16:31:19;-1.60;99.90
28438;DHT22;15667;52.376;9.708;2022-12-18T16:33:45;-1.60;99.90
28438;DHT22;15667;52.376;9.708;2022-12-18T16:36:10;-1.70;99.90
28438;DHT22;15667;52.376;9.708;2022-12-18T16:38:36;-1.70;99.90
28438;DHT22;15667;52.376;9.708;2022-12-18T16:41:01;-0.60;99.90
28438;DHT22;15667;52.376;9.708;2022-12-18T16:43:51;-1.70;99.90
28438;DHT22;15667;52.376;9.708;2022-12-18T16:46:17;-1.50;99.90
28438;DHT22;15667;52.376;9.708;2022-12-18T16:48:42;-1.60;99.90
28438;DHT22;15667;52.376;9.708;2022-12-18T16:51:08;-1.30;99.90
28438;DHT22;15667;52.376;9.708;2022-12-18T16:53:33;-1.60;99.90
28438;DHT22;15667;52.376;9.708;2022-12-18T16:55:59;-1.60;99.90
28438;DHT22;15667;52.376;9.708;2022-12-18T16:58:24;-1.50;99.90
28438;DHT22;15667;52.376;9.708;2022-12-18T17:00:50;-2.00;99.90
28438;DHT22;15667;52.376;9.708;2022-12-18T17:03:15;-0.80;99.90
28438;DHT22;15667;52.376;9.708;2022-12-18T17:05:41;-0.20;99.90
28438;DHT22;15667;52.376;9.708;2022-12-18T17:08:06;-0.20;99.90
28438;DHT22;15667;52.376;9.708;2022-12-18T17:10:33;-0.80;99.90
28438;DHT22;15667;52.376;9.708;2022-12-18T17:12:59;-1.30;99.90
28438;DHT22;15667;52.376;9.708;2022-12-18T17:15:25;-1.30;99.90
28438;DHT22;15667;52.376;9.708;2022-12-18T17:17:50;-1.20;99.90
28438;DHT22;15667;52.376;9.708;2022-12-18T17:20:16;-1.10;99.90
28438;DHT22;15667;52.376;9.708;2022-12-18T17:22:41;-1.10;99.90
28438;DHT22;15667;52.376;9.708;2022-12-18T17:25:07;-0.30;99.90
28438;DHT22;15667;52.376;9.708;2022-12-18T17:27:35;-1.00;99.90
28438;DHT22;15667;52.376;9.708;2022-12-18T17:30:01;-0.10;99.90
28438;DHT22;15667;52.376;9.708;2022-12-18T17:32:26;-0.90;99.90
28438;DHT22;15667;52.376;9.708;2022-12-18T17:34:52;-0.70;99.90
28438;DHT22;15667;52.376;9.708;2022-12-18T17:37:17;-0.80;99.90
28438;DHT22;15667;52.376;9.708;2022-12-18T17:39:43;-0.70;99.90
28438;DHT22;15667;52.376;9.708;2022-12-18T17:42:08;-0.70;99.90
28438;DHT22;15667;52.376;9.708;2022-12-18T17:44:38;-0.10;99.90
28438;DHT22;15667;52.376;9.708;2022-12-18T17:47:04;-0.70;99.90
28438;DHT22;15667;52.376;9.708;2022-12-18T17:49:30;-0.70;99.90
28438;DHT22;15667;52.376;9.708;2022-12-18T17:51:56;-0.70;99.90
28438;DHT22;15667;52.376;9.708;2022-12-18T17:54:21;0.40;99.90
28438;DHT22;15667;52.376;9.708;2022-12-18T17:56:47;-0.70;99.90
28438;DHT22;15667;52.376;9.708;2022-12-18T17:59:12;-0.70;99.90
28438;DHT22;15667;52.376;9.708;2022-12-18T18:01:38;-0.70;99.90
28438;DHT22;15667;52.376;9.708;2022-12-18T18:04:03;-0.70;99.90
28438;DHT22;15667;52.376;9.708;2022-12-18T18:06:29;-0.70;99.90
28438;DHT22;15667;52.376;9.708;2022-12-18T18:08:55;-0.70;99.90
28438;DHT22;15667;52.376;9.708;2022-12-18T18:11:21;-0.80;99.90
28438;DHT22;15667;52.376;9.708;2022-12-18T18:14:09;-0.70;99.90
28438;DHT22;15667;52.376;9.708;2022-12-18T18:16:37;0.00;99.90
28438;DHT22;15667;52.376;9.708;2022-12-18T18:19:08;0.50;99.90
28438;DHT22;15667;52.376;9.708;2022-12-18T18:21:34;-0.70;99.90
28438;DHT22;15667;52.376;9.708;2022-12-18T18:24:02;-0.70;99.90
28438;DHT22;15667;52.376;9.708;2022-12-18T18:26:32;-0.60;99.90
28438;DHT22;15667;52.376;9.708;2022-12-18T18:28:58;-0.60;99.90
28438;DHT22;15667;52.376;9.708;2022-12-18T18:31:24;-0.60;99.90
28438;DHT22;15667;52.376;9.708;2022-12-18T18:33:50;-0.60;99.90
28438;DHT22;15667;52.376;9.708;2022-12-18T18:36:16;-0.50;99.90
28438;DHT22;15667;52.376;9.708;2022-12-18T18:38:41;-0.60;99.90
28438;DHT22;15667;52.376;9.708;2022-12-18T18:41:07;-0.60;99.90
28438;DHT22;15667;52.376;9.708;2022-12-18T18:43:32;0.10;99.90
28438;DHT22;15667;52.376;9.708;2022-12-18T18:46:00;-0.60;99.90
28438;DHT22;15667;52.376;9.708;2022-12-18T18:48:26;-0.60;99.90
28438;DHT22;15667;52.376;9.708;2022-12-18T18:50:55;-0.60;99.90
28438;DHT22;15667;52.376;9.708;2022-12-18T18:53:21;-0.60;99.90
28438;DHT22;15667;52.376;9.708;2022-12-18T18:55:46;-0.60;99.90
28438;DHT22;15667;52.376;9.708;2022-12-18T18:58:12;-0.60;99.90
28438;DHT22;15667;52.376;9.708;2022-12-18T19:00:37;0.50;99.90
28438;DHT22;15667;52.376;9.708;2022-12-18T19:03:03;-0.60;99.90
28438;DHT22;15667;52.376;9.708;2022-12-18T19:05:30;-0.60;99.90
28438;DHT22;15667;52.376;9.708;2022-12-18T19:07:55;-0.50;99.90
28438;DHT22;15667;52.376;9.708;2022-12-18T19:10:21;-0.60;99.90
28438;DHT22;15667;52.376;9.708;2022-12-18T19:12:46;0.60;99.90
28438;DHT22;15667;52.376;9.708;2022-12-18T19:15:32;-0.60;99.90
28438;DHT22;15667;52.376;9.708;2022-12-18T19:17:57;-0.50;99.90
28438;DHT22;15667;52.376;9.708;2022-12-18T19:20:23;-0.50;99.90
28438;DHT22;15667;52.376;9.708;2022-12-18T19:22:48;-0.40;99.90
28438;DHT22;15667;52.376;9.708;2022-12-18T19:25:14;0.60;99.90
28438;DHT22;15667;52.376;9.708;2022-12-18T19:27:40;-0.30;99.90
28438;DHT22;15667;52.376;9.708;2022-12-18T19:30:05;-0.20;99.90
28438;DHT22;15667;52.376;9.708;2022-12-18T19:32:34;-0.20;99.90
28438;DHT22;15667;52.376;9.708;2022-12-18T19:34:59;-0.10;99.90
28438;DHT22;15667;52.376;9.708;2022-12-18T19:37:33;-0.20;99.90
28438;DHT22;15667;52.376;9.708;2022-12-18T19:39:58;-0.10;99.90
28438;DHT22;15667;52.376;9.708;2022-12-18T19:42:24;1.00;99.90
28438;DHT22;15667;52.376;9.708;2022-12-18T19:44:49;-0.20;99.90
28438;DHT22;15667;52.376;9.708;2022-12-18T19:47:18;-0.40;99.90
28438;DHT22;15667;52.376;9.708;2022-12-18T19:49:43;-0.30;99.90
28438;DHT22;15667;52.376;9.708;2022-12-18T19:52:09;-0.20;99.90
28438;DHT22;15667;52.376;9.708;2022-12-18T19:54:35;-0.10;99.90
28438;DHT22;15667;52.376;9.708;2022-12-18T19:57:01;-0.10;99.90
28438;DHT22;15667;52.376;9.708;2022-12-18T19:59:27;0.00;99.90
28438;DHT22;15667;52.376;9.708;2022-12-18T20:01:52;0.60;99.90
28438;DHT22;15667;52.376;9.708;2022-12-18T20:04:18;0.00;99.90
28438;DHT22;15667;52.376;9.708;2022-12-18T20:06:50;0.60;99.90
28438;DHT22;15667;52.376;9.708;2022-12-18T20:09:17;0.00;99.90
28438;DHT22;15667;52.376;9.708;2022-12-18T20:11:45;0.00;99.90
28438;DHT22;15667;52.376;9.708;2022-12-18T20:14:12;0.60;99.90
28438;DHT22;15667;52.376;9.708;2022-12-18T20:16:38;0.10;99.90
28438;DHT22;15667;52.376;9.708;2022-12-18T20:19:04;0.10;99.90
28438;DHT22;15667;52.376;9.708;2022-12-18T20:21:29;0.20;99.90